sensor_id;sensor_type;location;lat;lon;timestamp;temperature;humidity
65568;DHT22;52211;50.154;8.682;2022-08-21T00:01:54;22.70;39.40
65568;DHT22;52211;50.154;8.682;2022-08-21T00:04:27;22.60;39.40
65568;DHT22;52211;50.154;8.682;2022-08-21T00:06:55;22.70;39.60
65568;DHT22;52211;50.154;8.682;2022-08-21T00:09:25;22.60;39.60
65568;DHT22;52211;50.154;8.682;2022-08-21T00:11:52;22.60;39.70
65568;DHT22;52211;50.154;8.682;2022-08-21T00:14:26;22.60;39.90
65568;DHT22;52211;50.154;8.682;2022-08-21T00:16:57;22.50;39.80
65568;DHT22;52211;50.154;8.682;2022-08-21T00:19:27;22.50;40.00
65568;DHT22;52211;50.154;8.682;2022-08-21T00:22:00;22.50;40.10
65568;DHT22;52211;50.154;8.682;2022-08-21T00:24:27;22.50;40.30
65568;DHT22;52211;50.154;8.682;2022-08-21T00:26:54;22.40;40.20
65568;DHT22;52211;50.154;8.682;2022-08-21T00:29:23;22.40;40.30
65568;DHT22;52211;50.154;8.682;2022-08-21T00:31:50;22.40;40.60
65568;DHT22;52211;50.154;8.682;2022-08-21T00:34:20;22.40;40.50
65568;DHT22;52211;50.154;8.682;2022-08-21T00:36:49;22.30;40.50
65568;DHT22;52211;50.154;8.682;2022-08-21T00:39:19;22.30;40.70
65568;DHT22;52211;50.154;8.682;2022-08-21T00:41:46;22.30;40.90
65568;DHT22;52211;50.154;8.682;2022-08-21T00:44:14;22.30;40.80
65568;DHT22;52211;50.154;8.682;2022-08-21T00:46:43;22.30;41.00
65568;DHT22;52211;50.154;8.682;2022-08-21T00:49:14;22.30;41.10
65568;DHT22;52211;50.154;8.682;2022-08-21T00:51:51;22.20;41.10
65568;DHT22;52211;50.154;8.682;2022-08-21T00:54:26;22.20;41.40
65568;DHT22;52211;50.154;8.682;2022-08-21T00:57:03;22.20;42.10
65568;DHT22;52211;50.154;8.682;2022-08-21T00:59:38;22.20;41.50
65568;DHT22;52211;50.154;8.682;2022-08-21T01:02:07;22.20;41.40
65568;DHT22;52211;50.154;8.682;2022-08-21T01:04:37;22.10;41.30
65568;DHT22;52211;50.154;8.682;2022-08-21T01:07:07;22.10;41.50
65568;DHT22;52211;50.154;8.682;2022-08-21T01:09:35;22.10;41.60
65568;DHT22;52211;50.154;8.682;2022-08-21T01:12:08;22.10;41.70
65568;DHT22;52211;50.154;8.682;2022-08-21T01:14:42;22.00;41.90
65568;DHT22;52211;50.154;8.682;2022-08-21T01:17:13;22.10;42.10
65568;DHT22;52211;50.154;8.682;2022-08-21T01:19:44;21.90;41.90
65568;DHT22;52211;50.154;8.682;2022-08-21T01:22:11;21.90;41.90
65568;DHT22;52211;50.154;8.682;2022-08-21T01:24:45;21.90;42.00
65568;DHT22;52211;50.154;8.682;2022-08-21T01:27:12;21.80;42.30
65568;DHT22;52211;50.154;8.682;2022-08-21T01:32:32;21.80;42.70
65568;DHT22;52211;50.154;8.682;2022-08-21T01:35:05;21.70;42.20
65568;DHT22;52211;50.154;8.682;2022-08-21T01:37:37;21.70;42.70
65568;DHT22;52211;50.154;8.682;2022-08-21T01:40:07;21.70;42.50
65568;DHT22;52211;50.154;8.682;2022-08-21T01:42:35;21.60;42.60
65568;DHT22;52211;50.154;8.682;2022-08-21T01:45:04;21.60;42.70
65568;DHT22;52211;50.154;8.682;2022-08-21T01:47:35;21.50;42.80
65568;DHT22;52211;50.154;8.682;2022-08-21T01:50:07;21.50;43.20
65568;DHT22;52211;50.154;8.682;2022-08-21T01:52:38;21.50;43.10
65568;DHT22;52211;50.154;8.682;2022-08-21T01:55:07;21.50;43.10
65568;DHT22;52211;50.154;8.682;2022-08-21T01:57:40;21.40;43.10
65568;DHT22;52211;50.154;8.682;2022-08-21T02:00:09;21.40;43.90
65568;DHT22;52211;50.154;8.682;2022-08-21T02:02:40;21.40;43.30
65568;DHT22;52211;50.154;8.682;2022-08-21T02:05:11;21.30;43.30
65568;DHT22;52211;50.154;8.682;2022-08-21T02:07:41;21.30;43.80
65568;DHT22;52211;50.154;8.682;2022-08-21T02:10:16;21.30;43.60
65568;DHT22;52211;50.154;8.682;2022-08-21T02:12:55;21.30;43.70
65568;DHT22;52211;50.154;8.682;2022-08-21T02:15:29;21.30;43.60
65568;DHT22;52211;50.154;8.682;2022-08-21T02:17:59;21.30;43.80
65568;DHT22;52211;50.154;8.682;2022-08-21T02:20:35;21.20;43.80
65568;DHT22;52211;50.154;8.682;2022-08-21T02:23:06;21.20;43.80
65568;DHT22;52211;50.154;8.682;2022-08-21T02:25:34;21.20;44.00
65568;DHT22;52211;50.154;8.682;2022-08-21T02:28:07;21.20;44.00
65568;DHT22;52211;50.154;8.682;2022-08-21T02:30:41;21.20;44.50
65568;DHT22;52211;50.154;8.682;2022-08-21T02:33:12;21.10;44.30
65568;DHT22;52211;50.154;8.682;2022-08-21T02:35:42;21.10;44.30
65568;DHT22;52211;50.154;8.682;2022-08-21T02:38:14;21.10;44.40
65568;DHT22;52211;50.154;8.682;2022-08-21T02:40:52;21.00;44.40
65568;DHT22;52211;50.154;8.682;2022-08-21T02:43:24;21.00;44.50
65568;DHT22;52211;50.154;8.682;2022-08-21T02:45:58;21.00;44.60
65568;DHT22;52211;50.154;8.682;2022-08-21T02:48:28;21.00;44.70
65568;DHT22;52211;50.154;8.682;2022-08-21T02:51:11;20.90;45.00
65568;DHT22;52211;50.154;8.682;2022-08-21T02:53:41;20.90;45.00
65568;DHT22;52211;50.154;8.682;2022-08-21T02:56:10;20.90;45.00
65568;DHT22;52211;50.154;8.682;2022-08-21T02:58:47;20.90;45.10
65568;DHT22;52211;50.154;8.682;2022-08-21T03:01:18;20.80;45.20
65568;DHT22;52211;50.154;8.682;2022-08-21T03:03:49;20.80;45.10
65568;DHT22;52211;50.154;8.682;2022-08-21T03:06:18;20.80;45.30
65568;DHT22;52211;50.154;8.682;2022-08-21T03:08:46;20.80;45.30
65568;DHT22;52211;50.154;8.682;2022-08-21T03:11:16;20.70;45.20
65568;DHT22;52211;50.154;8.682;2022-08-21T03:13:43;20.70;45.40
65568;DHT22;52211;50.154;8.682;2022-08-21T03:16:13;20.70;45.50
65568;DHT22;52211;50.154;8.682;2022-08-21T03:18:41;20.70;45.90
65568;DHT22;52211;50.154;8.682;2022-08-21T03:21:12;20.60;45.70
65568;DHT22;52211;50.154;8.682;2022-08-21T03:23:40;20.60;46.00
65568;DHT22;52211;50.154;8.682;2022-08-21T03:26:09;20.60;46.60
65568;DHT22;52211;50.154;8.682;2022-08-21T03:28:41;20.50;45.90
65568;DHT22;52211;50.154;8.682;2022-08-21T03:31:14;20.50;46.20
65568;DHT22;52211;50.154;8.682;2022-08-21T03:33:40;20.50;46.10
65568;DHT22;52211;50.154;8.682;2022-08-21T03:36:12;20.50;46.10
65568;DHT22;52211;50.154;8.682;2022-08-21T03:38:42;20.50;46.40
65568;DHT22;52211;50.154;8.682;2022-08-21T03:41:09;20.50;46.30
65568;DHT22;52211;50.154;8.682;2022-08-21T03:43:35;20.40;46.20
65568;DHT22;52211;50.154;8.682;2022-08-21T03:46:07;20.40;46.40
65568;DHT22;52211;50.154;8.682;2022-08-21T03:48:35;20.40;46.40
65568;DHT22;52211;50.154;8.682;2022-08-21T03:51:04;20.30;46.50
65568;DHT22;52211;50.154;8.682;2022-08-21T03:53:33;20.30;46.60
65568;DHT22;52211;50.154;8.682;2022-08-21T03:56:03;20.30;46.90
65568;DHT22;52211;50.154;8.682;2022-08-21T03:58:35;20.30;46.70
65568;DHT22;52211;50.154;8.682;2022-08-21T04:01:05;20.20;46.70
65568;DHT22;52211;50.154;8.682;2022-08-21T04:03:35;20.20;46.90
65568;DHT22;52211;50.154;8.682;2022-08-21T04:06:05;20.20;47.10
65568;DHT22;52211;50.154;8.682;2022-08-21T04:08:35;20.20;47.00
65568;DHT22;52211;50.154;8.682;2022-08-21T04:11:02;20.20;47.10
65568;DHT22;52211;50.154;8.682;2022-08-21T04:13:32;20.10;47.10
65568;DHT22;52211;50.154;8.682;2022-08-21T04:15:59;20.10;47.10
65568;DHT22;52211;50.154;8.682;2022-08-21T04:18:26;20.10;47.20
65568;DHT22;52211;50.154;8.682;2022-08-21T04:20:57;20.10;47.30
65568;DHT22;52211;50.154;8.682;2022-08-21T04:23:30;20.00;47.60
65568;DHT22;52211;50.154;8.682;2022-08-21T04:26:04;20.10;47.30
65568;DHT22;52211;50.154;8.682;2022-08-21T04:28:31;20.00;47.30
65568;DHT22;52211;50.154;8.682;2022-08-21T04:31:00;20.00;47.40
65568;DHT22;52211;50.154;8.682;2022-08-21T04:33:27;20.10;47.50
65568;DHT22;52211;50.154;8.682;2022-08-21T04:35:56;20.00;47.60
65568;DHT22;52211;50.154;8.682;2022-08-21T04:38:26;20.00;47.60
65568;DHT22;52211;50.154;8.682;2022-08-21T04:41:02;20.00;47.60
65568;DHT22;52211;50.154;8.682;2022-08-21T04:43:28;20.00;47.60
65568;DHT22;52211;50.154;8.682;2022-08-21T04:45:55;19.90;47.70
65568;DHT22;52211;50.154;8.682;2022-08-21T04:48:23;19.90;47.80
65568;DHT22;52211;50.154;8.682;2022-08-21T04:51:09;19.90;47.80
65568;DHT22;52211;50.154;8.682;2022-08-21T04:53:52;19.90;48.60
65568;DHT22;52211;50.154;8.682;2022-08-21T04:56:39;19.80;48.50
65568;DHT22;52211;50.154;8.682;2022-08-21T04:59:28;19.80;48.60
65568;DHT22;52211;50.154;8.682;2022-08-21T05:02:00;19.70;48.50
65568;DHT22;52211;50.154;8.682;2022-08-21T05:04:33;19.70;48.10
65568;DHT22;52211;50.154;8.682;2022-08-21T05:07:05;19.70;48.40
65568;DHT22;52211;50.154;8.682;2022-08-21T05:09:38;19.70;48.60
65568;DHT22;52211;50.154;8.682;2022-08-21T05:12:05;19.60;48.50
65568;DHT22;52211;50.154;8.682;2022-08-21T05:14:32;19.60;48.50
65568;DHT22;52211;50.154;8.682;2022-08-21T05:16:59;19.60;48.60
65568;DHT22;52211;50.154;8.682;2022-08-21T05:19:31;19.60;48.70
65568;DHT22;52211;50.154;8.682;2022-08-21T05:22:03;19.60;48.80
65568;DHT22;52211;50.154;8.682;2022-08-21T05:24:35;19.60;49.10
65568;DHT22;52211;50.154;8.682;2022-08-21T05:27:02;19.60;48.80
65568;DHT22;52211;50.154;8.682;2022-08-21T05:29:36;19.60;48.80
65568;DHT22;52211;50.154;8.682;2022-08-21T05:32:09;19.60;49.00
65568;DHT22;52211;50.154;8.682;2022-08-21T05:34:43;19.60;49.70
65568;DHT22;52211;50.154;8.682;2022-08-21T05:37:13;19.60;49.30
65568;DHT22;52211;50.154;8.682;2022-08-21T05:39:40;19.60;49.30
65568;DHT22;52211;50.154;8.682;2022-08-21T05:42:27;19.60;49.30
65568;DHT22;52211;50.154;8.682;2022-08-21T05:44:56;19.60;49.30
65568;DHT22;52211;50.154;8.682;2022-08-21T05:47:24;19.60;49.40
65568;DHT22;52211;50.154;8.682;2022-08-21T05:49:53;19.60;49.50
65568;DHT22;52211;50.154;8.682;2022-08-21T05:52:21;19.70;49.50
65568;DHT22;52211;50.154;8.682;2022-08-21T05:54:52;19.70;49.70
65568;DHT22;52211;50.154;8.682;2022-08-21T05:57:24;19.70;49.50
65568;DHT22;52211;50.154;8.682;2022-08-21T05:59:52;19.80;49.80
65568;DHT22;52211;50.154;8.682;2022-08-21T06:02:24;19.80;49.70
65568;DHT22;52211;50.154;8.682;2022-08-21T06:04:56;19.90;49.80
65568;DHT22;52211;50.154;8.682;2022-08-21T06:07:28;19.90;50.20
65568;DHT22;52211;50.154;8.682;2022-08-21T06:09:59;19.90;50.00
65568;DHT22;52211;50.154;8.682;2022-08-21T06:12:27;19.90;50.20
65568;DHT22;52211;50.154;8.682;2022-08-21T06:14:56;20.00;50.10
65568;DHT22;52211;50.154;8.682;2022-08-21T06:17:23;20.10;50.10
65568;DHT22;52211;50.154;8.682;2022-08-21T06:19:55;20.10;50.30
65568;DHT22;52211;50.154;8.682;2022-08-21T06:22:27;20.10;50.70
65568;DHT22;52211;50.154;8.682;2022-08-21T06:24:56;20.20;50.40
65568;DHT22;52211;50.154;8.682;2022-08-21T06:27:23;20.30;50.30
65568;DHT22;52211;50.154;8.682;2022-08-21T06:29:52;20.30;50.20
65568;DHT22;52211;50.154;8.682;2022-08-21T06:32:22;20.40;50.20
65568;DHT22;52211;50.154;8.682;2022-08-21T06:34:48;20.50;50.50
65568;DHT22;52211;50.154;8.682;2022-08-21T06:37:15;20.50;50.20
65568;DHT22;52211;50.154;8.682;2022-08-21T06:39:49;20.60;50.20
65568;DHT22;52211;50.154;8.682;2022-08-21T06:42:16;20.70;50.60
65568;DHT22;52211;50.154;8.682;2022-08-21T06:44:46;20.80;50.20
65568;DHT22;52211;50.154;8.682;2022-08-21T06:47:15;20.80;50.20
65568;DHT22;52211;50.154;8.682;2022-08-21T06:49:42;20.80;50.00
65568;DHT22;52211;50.154;8.682;2022-08-21T06:52:15;20.90;50.10
65568;DHT22;52211;50.154;8.682;2022-08-21T06:54:44;21.00;50.10
65568;DHT22;52211;50.154;8.682;2022-08-21T06:57:14;21.10;50.20
65568;DHT22;52211;50.154;8.682;2022-08-21T06:59:43;21.20;50.20
65568;DHT22;52211;50.154;8.682;2022-08-21T07:02:12;21.20;50.20
65568;DHT22;52211;50.154;8.682;2022-08-21T07:04:39;21.30;50.30
65568;DHT22;52211;50.154;8.682;2022-08-21T07:07:06;21.30;50.30
65568;DHT22;52211;50.154;8.682;2022-08-21T07:09:35;21.40;50.40
65568;DHT22;52211;50.154;8.682;2022-08-21T07:12:02;21.50;50.30
65568;DHT22;52211;50.154;8.682;2022-08-21T07:14:29;21.60;50.30
65568;DHT22;52211;50.154;8.682;2022-08-21T07:16:58;21.60;50.20
65568;DHT22;52211;50.154;8.682;2022-08-21T07:19:25;21.70;50.30
65568;DHT22;52211;50.154;8.682;2022-08-21T07:21:55;21.80;50.10
65568;DHT22;52211;50.154;8.682;2022-08-21T07:24:28;21.90;50.30
65568;DHT22;52211;50.154;8.682;2022-08-21T07:26:57;21.90;50.10
65568;DHT22;52211;50.154;8.682;2022-08-21T07:29:24;22.00;50.10
65568;DHT22;52211;50.154;8.682;2022-08-21T07:31:53;22.00;50.10
65568;DHT22;52211;50.154;8.682;2022-08-21T07:34:22;22.10;50.10
65568;DHT22;52211;50.154;8.682;2022-08-21T07:36:57;22.10;50.00
65568;DHT22;52211;50.154;8.682;2022-08-21T07:39:34;22.20;50.10
65568;DHT22;52211;50.154;8.682;2022-08-21T07:42:04;22.30;50.10
65568;DHT22;52211;50.154;8.682;2022-08-21T07:44:36;22.30;49.90
65568;DHT22;52211;50.154;8.682;2022-08-21T07:47:03;22.40;50.00
65568;DHT22;52211;50.154;8.682;2022-08-21T07:49:32;22.40;50.00
65568;DHT22;52211;50.154;8.682;2022-08-21T07:52:04;22.50;50.10
65568;DHT22;52211;50.154;8.682;2022-08-21T07:54:33;22.60;50.00
65568;DHT22;52211;50.154;8.682;2022-08-21T07:57:03;22.70;50.00
65568;DHT22;52211;50.154;8.682;2022-08-21T07:59:30;22.80;50.00
65568;DHT22;52211;50.154;8.682;2022-08-21T08:01:57;22.90;49.90
65568;DHT22;52211;50.154;8.682;2022-08-21T08:04:26;22.90;49.90
65568;DHT22;52211;50.154;8.682;2022-08-21T08:06:54;23.00;49.80
65568;DHT22;52211;50.154;8.682;2022-08-21T08:09:21;23.10;49.70
65568;DHT22;52211;50.154;8.682;2022-08-21T08:11:50;23.20;49.70
65568;DHT22;52211;50.154;8.682;2022-08-21T08:14:17;23.30;49.70
65568;DHT22;52211;50.154;8.682;2022-08-21T08:16:51;23.40;49.70
65568;DHT22;52211;50.154;8.682;2022-08-21T08:19:20;23.40;49.60
65568;DHT22;52211;50.154;8.682;2022-08-21T08:21:47;23.50;49.50
65568;DHT22;52211;50.154;8.682;2022-08-21T08:24:16;23.60;49.50
65568;DHT22;52211;50.154;8.682;2022-08-21T08:26:45;23.70;49.50
65568;DHT22;52211;50.154;8.682;2022-08-21T08:29:21;23.80;49.40
65568;DHT22;52211;50.154;8.682;2022-08-21T08:31:50;23.90;49.30
65568;DHT22;52211;50.154;8.682;2022-08-21T08:34:20;24.00;49.30
65568;DHT22;52211;50.154;8.682;2022-08-21T08:36:51;24.00;49.20
65568;DHT22;52211;50.154;8.682;2022-08-21T08:39:19;24.20;49.20
65568;DHT22;52211;50.154;8.682;2022-08-21T08:42:06;24.20;49.70
65568;DHT22;52211;50.154;8.682;2022-08-21T08:45:11;24.30;48.80
65568;DHT22;52211;50.154;8.682;2022-08-21T08:47:47;24.40;48.80
65568;DHT22;52211;50.154;8.682;2022-08-21T08:50:36;24.40;48.60
65568;DHT22;52211;50.154;8.682;2022-08-21T08:53:22;24.50;48.50
65568;DHT22;52211;50.154;8.682;2022-08-21T08:55:57;24.60;48.40
65568;DHT22;52211;50.154;8.682;2022-08-21T08:58:47;24.70;48.50
65568;DHT22;52211;50.154;8.682;2022-08-21T09:01:20;24.80;48.40
65568;DHT22;52211;50.154;8.682;2022-08-21T09:03:51;24.90;48.10
65568;DHT22;52211;50.154;8.682;2022-08-21T09:12:17;25.10;47.40
65568;DHT22;52211;50.154;8.682;2022-08-21T09:15:03;25.20;46.90
65568;DHT22;52211;50.154;8.682;2022-08-21T09:26:56;25.50;45.90
65568;DHT22;52211;50.154;8.682;2022-08-21T09:29:49;25.60;45.90
65568;DHT22;52211;50.154;8.682;2022-08-21T09:35:12;25.80;45.80
65568;DHT22;52211;50.154;8.682;2022-08-21T09:37:55;25.90;45.30
65568;DHT22;52211;50.154;8.682;2022-08-21T09:40:44;25.90;45.20
65568;DHT22;52211;50.154;8.682;2022-08-21T09:43:18;26.00;44.80
65568;DHT22;52211;50.154;8.682;2022-08-21T09:46:08;26.10;45.00
65568;DHT22;52211;50.154;8.682;2022-08-21T09:48:54;26.20;44.80
65568;DHT22;52211;50.154;8.682;2022-08-21T09:51:35;26.30;45.00
65568;DHT22;52211;50.154;8.682;2022-08-21T09:56:51;26.50;44.50
65568;DHT22;52211;50.154;8.682;2022-08-21T09:59:38;26.60;44.10
65568;DHT22;52211;50.154;8.682;2022-08-21T10:02:32;26.80;44.50
65568;DHT22;52211;50.154;8.682;2022-08-21T10:05:15;26.90;43.50
65568;DHT22;52211;50.154;8.682;2022-08-21T10:07:53;27.00;44.10
65568;DHT22;52211;50.154;8.682;2022-08-21T10:10:26;27.10;43.50
65568;DHT22;52211;50.154;8.682;2022-08-21T10:21:35;27.40;42.80
65568;DHT22;52211;50.154;8.682;2022-08-21T10:24:56;27.50;42.90
65568;DHT22;52211;50.154;8.682;2022-08-21T10:48:29;28.50;41.30
65568;DHT22;52211;50.154;8.682;2022-08-21T10:54:12;28.70;40.50
65568;DHT22;52211;50.154;8.682;2022-08-21T10:56:53;28.70;40.50
65568;DHT22;52211;50.154;8.682;2022-08-21T10:59:51;28.80;40.00
65568;DHT22;52211;50.154;8.682;2022-08-21T11:02:35;28.90;39.80
65568;DHT22;52211;50.154;8.682;2022-08-21T11:05:33;29.00;39.40
65568;DHT22;52211;50.154;8.682;2022-08-21T11:08:25;29.10;40.60
65568;DHT22;52211;50.154;8.682;2022-08-21T11:11:29;29.20;40.40
65568;DHT22;52211;50.154;8.682;2022-08-21T11:16:51;29.70;39.60
65568;DHT22;52211;50.154;8.682;2022-08-21T11:19:45;29.90;39.00
65568;DHT22;52211;50.154;8.682;2022-08-21T11:25:20;30.20;38.50
65568;DHT22;52211;50.154;8.682;2022-08-21T11:28:00;30.40;38.40
65568;DHT22;52211;50.154;8.682;2022-08-21T11:40:24;30.40;38.40
65568;DHT22;52211;50.154;8.682;2022-08-21T11:46:29;30.50;37.80
65568;DHT22;52211;50.154;8.682;2022-08-21T11:55:23;31.30;37.50
65568;DHT22;52211;50.154;8.682;2022-08-21T11:58:17;31.50;37.00
65568;DHT22;52211;50.154;8.682;2022-08-21T12:00:56;31.80;36.50
65568;DHT22;52211;50.154;8.682;2022-08-21T12:03:33;32.10;36.60
65568;DHT22;52211;50.154;8.682;2022-08-21T12:06:13;32.30;36.00
65568;DHT22;52211;50.154;8.682;2022-08-21T12:08:59;32.50;35.30
65568;DHT22;52211;50.154;8.682;2022-08-21T12:11:32;32.70;34.80
65568;DHT22;52211;50.154;8.682;2022-08-21T12:14:15;32.80;35.30
65568;DHT22;52211;50.154;8.682;2022-08-21T12:16:47;32.90;34.40
65568;DHT22;52211;50.154;8.682;2022-08-21T12:24:42;33.30;33.80
65568;DHT22;52211;50.154;8.682;2022-08-21T12:33:05;33.60;33.50
65568;DHT22;52211;50.154;8.682;2022-08-21T12:35:49;33.80;33.00
65568;DHT22;52211;50.154;8.682;2022-08-21T12:38:26;34.10;33.20
65568;DHT22;52211;50.154;8.682;2022-08-21T12:40:59;34.30;32.70
65568;DHT22;52211;50.154;8.682;2022-08-21T12:46:05;34.80;31.40
65568;DHT22;52211;50.154;8.682;2022-08-21T12:48:58;34.90;31.80
65568;DHT22;52211;50.154;8.682;2022-08-21T12:51:37;35.00;31.90
65568;DHT22;52211;50.154;8.682;2022-08-21T12:54:09;35.20;31.20
65568;DHT22;52211;50.154;8.682;2022-08-21T12:56:38;35.30;32.10
65568;DHT22;52211;50.154;8.682;2022-08-21T12:59:11;35.50;31.50
65568;DHT22;52211;50.154;8.682;2022-08-21T13:01:49;35.80;31.10
65568;DHT22;52211;50.154;8.682;2022-08-21T13:04:55;36.10;30.90
65568;DHT22;52211;50.154;8.682;2022-08-21T13:07:24;36.40;31.00
65568;DHT22;52211;50.154;8.682;2022-08-21T13:10:34;36.70;30.10
65568;DHT22;52211;50.154;8.682;2022-08-21T13:13:06;36.80;29.90
65568;DHT22;52211;50.154;8.682;2022-08-21T13:15:40;37.00;30.00
65568;DHT22;52211;50.154;8.682;2022-08-21T13:18:28;37.30;30.10
65568;DHT22;52211;50.154;8.682;2022-08-21T13:21:15;37.60;29.90
65568;DHT22;52211;50.154;8.682;2022-08-21T13:23:44;37.80;29.50
65568;DHT22;52211;50.154;8.682;2022-08-21T13:26:20;37.70;28.70
65568;DHT22;52211;50.154;8.682;2022-08-21T13:28:49;37.50;28.30
65568;DHT22;52211;50.154;8.682;2022-08-21T13:31:25;37.30;28.90
65568;DHT22;52211;50.154;8.682;2022-08-21T13:33:57;37.10;28.70
65568;DHT22;52211;50.154;8.682;2022-08-21T13:36:35;37.00;28.90
65568;DHT22;52211;50.154;8.682;2022-08-21T13:39:08;36.80;28.40
65568;DHT22;52211;50.154;8.682;2022-08-21T13:41:43;36.60;28.60
65568;DHT22;52211;50.154;8.682;2022-08-21T13:44:19;36.40;28.50
65568;DHT22;52211;50.154;8.682;2022-08-21T13:46:49;36.20;28.60
65568;DHT22;52211;50.154;8.682;2022-08-21T13:49:19;36.10;28.90
65568;DHT22;52211;50.154;8.682;2022-08-21T13:51:52;35.90;28.60
65568;DHT22;52211;50.154;8.682;2022-08-21T13:54:35;35.70;28.80
65568;DHT22;52211;50.154;8.682;2022-08-21T13:57:19;35.50;28.50
65568;DHT22;52211;50.154;8.682;2022-08-21T14:00:19;35.30;28.30
65568;DHT22;52211;50.154;8.682;2022-08-21T14:03:09;35.10;28.50
65568;DHT22;52211;50.154;8.682;2022-08-21T14:05:45;34.90;28.70
65568;DHT22;52211;50.154;8.682;2022-08-21T14:08:21;34.80;29.00
65568;DHT22;52211;50.154;8.682;2022-08-21T14:10:58;34.80;28.80
65568;DHT22;52211;50.154;8.682;2022-08-21T14:13:58;34.90;29.10
65568;DHT22;52211;50.154;8.682;2022-08-21T14:16:43;35.10;28.90
65568;DHT22;52211;50.154;8.682;2022-08-21T14:19:35;35.40;28.80
65568;DHT22;52211;50.154;8.682;2022-08-21T14:30:45;35.80;28.50
65568;DHT22;52211;50.154;8.682;2022-08-21T14:33:29;35.90;28.50
65568;DHT22;52211;50.154;8.682;2022-08-21T14:35:59;36.20;28.20
65568;DHT22;52211;50.154;8.682;2022-08-21T14:38:30;36.50;28.40
65568;DHT22;52211;50.154;8.682;2022-08-21T14:41:03;36.80;28.30
65568;DHT22;52211;50.154;8.682;2022-08-21T14:43:36;37.20;28.10
65568;DHT22;52211;50.154;8.682;2022-08-21T14:46:07;37.60;28.10
65568;DHT22;52211;50.154;8.682;2022-08-21T14:48:37;38.00;27.80
65568;DHT22;52211;50.154;8.682;2022-08-21T14:51:06;38.30;27.20
65568;DHT22;52211;50.154;8.682;2022-08-21T14:53:35;38.60;27.20
65568;DHT22;52211;50.154;8.682;2022-08-21T14:56:07;38.90;27.00
65568;DHT22;52211;50.154;8.682;2022-08-21T14:58:38;39.10;26.70
65568;DHT22;52211;50.154;8.682;2022-08-21T15:01:14;39.20;26.90
65568;DHT22;52211;50.154;8.682;2022-08-21T15:03:48;39.30;26.40
65568;DHT22;52211;50.154;8.682;2022-08-21T15:06:19;39.20;26.40
65568;DHT22;52211;50.154;8.682;2022-08-21T15:08:47;39.20;26.70
65568;DHT22;52211;50.154;8.682;2022-08-21T15:11:24;39.30;26.80
65568;DHT22;52211;50.154;8.682;2022-08-21T15:14:23;39.40;26.20
65568;DHT22;52211;50.154;8.682;2022-08-21T15:16:54;39.50;26.00
65568;DHT22;52211;50.154;8.682;2022-08-21T15:19:21;39.50;26.20
65568;DHT22;52211;50.154;8.682;2022-08-21T15:21:51;39.20;25.90
65568;DHT22;52211;50.154;8.682;2022-08-21T15:24:21;38.90;25.70
65568;DHT22;52211;50.154;8.682;2022-08-21T15:26:48;38.50;25.80
65568;DHT22;52211;50.154;8.682;2022-08-21T15:29:15;38.10;25.70
65568;DHT22;52211;50.154;8.682;2022-08-21T15:31:58;37.70;25.70
65568;DHT22;52211;50.154;8.682;2022-08-21T15:34:29;37.30;25.70
65568;DHT22;52211;50.154;8.682;2022-08-21T15:36:59;37.10;26.10
65568;DHT22;52211;50.154;8.682;2022-08-21T15:39:28;37.10;26.30
65568;DHT22;52211;50.154;8.682;2022-08-21T15:41:57;37.20;26.20
65568;DHT22;52211;50.154;8.682;2022-08-21T15:44:38;37.40;26.40
65568;DHT22;52211;50.154;8.682;2022-08-21T15:47:11;37.70;26.30
65568;DHT22;52211;50.154;8.682;2022-08-21T15:49:42;37.80;25.80
65568;DHT22;52211;50.154;8.682;2022-08-21T15:52:19;37.80;25.90
65568;DHT22;52211;50.154;8.682;2022-08-21T15:54:47;37.60;25.60
65568;DHT22;52211;50.154;8.682;2022-08-21T15:57:22;37.40;25.80
65568;DHT22;52211;50.154;8.682;2022-08-21T15:59:56;37.00;25.60
65568;DHT22;52211;50.154;8.682;2022-08-21T16:02:33;36.70;25.50
65568;DHT22;52211;50.154;8.682;2022-08-21T16:05:03;36.20;25.70
65568;DHT22;52211;50.154;8.682;2022-08-21T16:07:33;35.80;25.80
65568;DHT22;52211;50.154;8.682;2022-08-21T16:10:00;35.40;25.80
65568;DHT22;52211;50.154;8.682;2022-08-21T16:12:31;35.00;25.80
65568;DHT22;52211;50.154;8.682;2022-08-21T16:15:02;34.60;25.90
65568;DHT22;52211;50.154;8.682;2022-08-21T16:17:41;34.20;26.10
65568;DHT22;52211;50.154;8.682;2022-08-21T16:20:21;33.80;26.10
65568;DHT22;52211;50.154;8.682;2022-08-21T16:22:53;33.60;26.20
65568;DHT22;52211;50.154;8.682;2022-08-21T16:25:22;33.30;26.40
65568;DHT22;52211;50.154;8.682;2022-08-21T16:27:55;33.00;26.40
65568;DHT22;52211;50.154;8.682;2022-08-21T16:30:29;32.80;26.40
65568;DHT22;52211;50.154;8.682;2022-08-21T16:32:58;32.50;26.50
65568;DHT22;52211;50.154;8.682;2022-08-21T16:35:31;32.40;26.70
65568;DHT22;52211;50.154;8.682;2022-08-21T16:37:58;32.10;26.70
65568;DHT22;52211;50.154;8.682;2022-08-21T16:40:28;32.00;26.90
65568;DHT22;52211;50.154;8.682;2022-08-21T16:42:59;31.80;27.00
65568;DHT22;52211;50.154;8.682;2022-08-21T16:45:27;31.60;27.00
65568;DHT22;52211;50.154;8.682;2022-08-21T16:47:59;31.50;27.10
65568;DHT22;52211;50.154;8.682;2022-08-21T16:50:31;31.40;27.20
65568;DHT22;52211;50.154;8.682;2022-08-21T16:52:58;31.30;27.20
65568;DHT22;52211;50.154;8.682;2022-08-21T16:55:25;31.10;27.20
65568;DHT22;52211;50.154;8.682;2022-08-21T16:57:54;31.00;27.30
65568;DHT22;52211;50.154;8.682;2022-08-21T17:00:28;30.90;27.40
65568;DHT22;52211;50.154;8.682;2022-08-21T17:03:00;30.80;27.40
65568;DHT22;52211;50.154;8.682;2022-08-21T17:05:29;30.70;27.50
65568;DHT22;52211;50.154;8.682;2022-08-21T17:07:58;30.50;27.60
65568;DHT22;52211;50.154;8.682;2022-08-21T17:10:28;30.40;27.60
65568;DHT22;52211;50.154;8.682;2022-08-21T17:12:58;30.30;27.80
65568;DHT22;52211;50.154;8.682;2022-08-21T17:15:32;30.20;27.90
65568;DHT22;52211;50.154;8.682;2022-08-21T17:18:02;30.10;27.90
65568;DHT22;52211;50.154;8.682;2022-08-21T17:20:31;30.10;28.00
65568;DHT22;52211;50.154;8.682;2022-08-21T17:22:58;29.90;28.00
65568;DHT22;52211;50.154;8.682;2022-08-21T17:25:26;29.90;28.10
65568;DHT22;52211;50.154;8.682;2022-08-21T17:27:54;29.80;28.20
65568;DHT22;52211;50.154;8.682;2022-08-21T17:30:24;29.70;28.20
65568;DHT22;52211;50.154;8.682;2022-08-21T17:32:56;29.60;28.30
65568;DHT22;52211;50.154;8.682;2022-08-21T17:35:28;29.50;28.50
65568;DHT22;52211;50.154;8.682;2022-08-21T17:37:59;29.40;28.30
65568;DHT22;52211;50.154;8.682;2022-08-21T17:40:29;29.30;28.40
65568;DHT22;52211;50.154;8.682;2022-08-21T17:43:02;29.20;28.40
65568;DHT22;52211;50.154;8.682;2022-08-21T17:45:33;29.10;28.50
65568;DHT22;52211;50.154;8.682;2022-08-21T17:48:03;29.00;28.50
65568;DHT22;52211;50.154;8.682;2022-08-21T17:50:32;28.90;28.60
65568;DHT22;52211;50.154;8.682;2022-08-21T17:53:04;28.80;28.60